Time;durP1;ratioP1;P1;durP2;ratioP2;P2;SDS_P1;SDS_P2;PMS_P1;PMS_P2;Temp;Humidity;BMP_temperature;BMP_pressure;BME280_temperature;BME280_humidity;BME280_pressure;Samples;Min_cycle;Max_cycle;Signal;HPM_P1;HPM_P2
2022/05/16 00:00:59;;;;;;;10.02;4.60;;;13.20;99.90;;;;;;5112579;28;20480;-58
2022/05/16 00:03:25;;;;;;;9.23;4.55;;;13.20;99.90;;;;;;5112833;28;20099;-58
2022/05/16 00:05:52;;;;;;;9.73;4.82;;;13.20;99.90;;;;;;5112430;28;20051;-61
2022/05/16 00:08:17;;;;;;;15.00;4.82;;;13.30;99.90;;;;;;5094818;28;20564;-59
2022/05/16 00:10:44;;;;;;;11.15;4.88;;;13.20;99.90;;;;;;5094080;28;20106;-58
2022/05/16 00:13:09;;;;;;;8.60;4.03;;;13.30;99.90;;;;;;5094652;28;20397;-58
2022/05/16 00:15:35;;;;;;;7.18;4.50;;;13.30;99.90;;;;;;5112201;28;20044;-58
2022/05/16 00:18:02;;;;;;;10.15;4.65;;;13.30;99.90;;;;;;5112325;28;20066;-58
2022/05/16 00:20:29;;;;;;;10.10;4.65;;;13.30;99.90;;;;;;5094259;28;20263;-58
2022/05/16 00:22:54;;;;;;;11.15;4.80;;;13.50;99.90;;;;;;5094030;28;20056;-58
2022/05/16 00:25:20;;;;;;;7.75;4.10;;;13.40;99.90;;;;;;5112385;28;20044;-59
2022/05/16 00:27:46;;;;;;;7.45;4.05;;;13.40;99.90;;;;;;5111871;28;20489;-58
2022/05/16 00:30:15;;;;;;;9.95;4.57;;;13.40;99.90;;;;;;5094293;28;20049;-58
2022/05/16 00:32:41;;;;;;;7.88;4.75;;;13.30;99.90;;;;;;5077188;28;20410;-59
2022/05/16 00:35:09;;;;;;;11.23;5.10;;;13.30;99.90;;;;;;5112284;28;20047;-59
2022/05/16 00:37:35;;;;;;;10.43;4.07;;;13.30;99.90;;;;;;5093923;28;20397;-59
2022/05/16 00:40:00;;;;;;;10.40;4.53;;;13.30;99.90;;;;;;5112223;28;20054;-59
2022/05/16 00:42:26;;;;;;;8.27;3.88;;;13.30;99.90;;;;;;5094291;28;20444;-58
2022/05/16 00:44:52;;;;;;;11.52;4.53;;;13.30;99.90;;;;;;5093635;28;20289;-59
2022/05/16 00:47:18;;;;;;;10.38;4.78;;;13.30;99.90;;;;;;5094253;28;20396;-59
2022/05/16 00:49:47;;;;;;;8.77;4.75;;;13.30;99.90;;;;;;5111657;28;20043;-59
2022/05/16 00:52:26;;;;;;;8.35;4.60;;;13.20;99.90;;;;;;5093536;28;20096;-59
2022/05/16 00:55:00;;;;;;;10.70;4.55;;;13.20;99.90;;;;;;5093456;28;20059;-59
2022/05/16 00:57:34;;;;;;;8.70;4.10;;;13.20;99.90;;;;;;5093763;28;20445;-59
2022/05/16 01:00:12;;;;;;;11.67;4.90;;;13.20;99.90;;;;;;5093797;28;20082;-61
2022/05/16 01:05:28;;;;;;;9.07;4.20;;;13.20;99.90;;;;;;5093686;28;20052;-59
2022/05/16 01:07:57;;;;;;;6.93;4.05;;;13.20;99.90;;;;;;5111392;28;20044;-59
2022/05/16 01:10:23;;;;;;;7.18;4.32;;;13.10;99.90;;;;;;5093897;28;20390;-60
2022/05/16 01:12:51;;;;;;;8.32;4.40;;;13.20;99.90;;;;;;5093192;28;20050;-59
2022/05/16 01:15:33;;;;;;;8.18;3.78;;;13.10;99.90;;;;;;5111844;28;20093;-59
2022/05/16 01:17:59;;;;;;;8.45;3.80;;;13.10;99.90;;;;;;5111418;28;20122;-59
2022/05/16 01:20:55;;;;;;;6.75;3.65;;;13.10;99.90;;;;;;5077102;28;20389;-59
2022/05/16 01:23:25;;;;;;;6.15;3.35;;;13.10;99.90;;;;;;5080212;28;20109;-58
2022/05/16 01:25:52;;;;;;;6.13;3.67;;;13.00;99.90;;;;;;5093300;28;20051;-60
2022/05/16 01:28:22;;;;;;;7.50;3.85;;;13.00;99.90;;;;;;5093418;28;20055;-59
2022/05/16 01:30:50;;;;;;;8.52;3.63;;;13.10;99.90;;;;;;5111185;28;20039;-60
2022/05/16 01:33:20;;;;;;;5.78;2.97;;;13.00;99.90;;;;;;5093671;28;20089;-60
2022/05/16 01:35:47;;;;;;;5.68;2.97;;;13.00;99.90;;;;;;5110723;28;20555;-60
2022/05/16 01:38:21;;;;;;;6.57;2.88;;;13.00;99.90;;;;;;5111582;28;20043;-60
2022/05/16 01:40:57;;;;;;;4.95;2.45;;;13.10;99.90;;;;;;5111109;28;20496;-61
2022/05/16 01:43:29;;;;;;;5.72;2.70;;;12.90;99.90;;;;;;5093371;28;20047;-61
2022/05/16 01:45:56;;;;;;;6.35;2.78;;;13.00;99.90;;;;;;5110868;28;20132;-60
2022/05/16 01:48:21;;;;;;;5.45;2.40;;;13.00;99.90;;;;;;5093391;28;20051;-59
2022/05/16 01:50:49;;;;;;;3.75;2.45;;;13.00;99.90;;;;;;5110963;28;20058;-59
2022/05/16 01:53:16;;;;;;;6.35;2.80;;;13.00;99.90;;;;;;5111543;28;20052;-59
2022/05/16 01:55:42;;;;;;;4.50;2.22;;;13.00;99.90;;;;;;5092968;28;20043;-63
2022/05/16 01:58:08;;;;;;;5.32;2.53;;;13.00;99.90;;;;;;5111551;28;20051;-59
2022/05/16 02:00:35;;;;;;;6.47;2.80;;;13.00;99.90;;;;;;5111182;28;20104;-59
2022/05/16 02:03:01;;;;;;;3.92;2.35;;;13.00;99.90;;;;;;5110797;28;20050;-61
2022/05/16 02:05:28;;;;;;;9.02;2.60;;;13.00;99.90;;;;;;5111072;28;20048;-61
2022/05/16 02:07:53;;;;;;;6.63;2.70;;;12.90;99.90;;;;;;5111043;28;20384;-60
2022/05/16 02:10:22;;;;;;;4.55;2.38;;;12.90;99.90;;;;;;5113151;28;20131;-61
2022/05/16 02:12:48;;;;;;;5.20;2.40;;;12.90;99.90;;;;;;5114604;28;20046;-60
2022/05/16 02:15:18;;;;;;;4.90;2.40;;;12.90;99.90;;;;;;5115115;28;20051;-60
2022/05/16 02:17:43;;;;;;;8.63;2.20;;;12.90;99.90;;;;;;5115024;28;20131;-60
2022/05/16 02:20:10;;;;;;;4.85;1.90;;;12.80;99.90;;;;;;5114593;28;20362;-60
2022/05/16 02:25:20;;;;;;;4.15;2.00;;;12.80;99.90;;;;;;5114861;28;20138;-62
2022/05/16 02:27:47;;;;;;;4.40;2.38;;;12.70;99.90;;;;;;5114273;28;20075;-62
2022/05/16 02:30:13;;;;;;;5.55;2.35;;;12.70;99.90;;;;;;5096360;28;20043;-60
2022/05/16 02:32:39;;;;;;;4.10;2.40;;;12.70;99.90;;;;;;5114654;28;20039;-59
2022/05/16 02:35:05;;;;;;;5.28;2.10;;;12.70;99.90;;;;;;5113794;28;20415;-61
2022/05/16 02:37:31;;;;;;;3.83;2.15;;;12.70;99.90;;;;;;5114510;28;20089;-60
2022/05/16 02:39:57;;;;;;;4.97;2.20;;;12.60;99.90;;;;;;5113906;28;20082;-60
2022/05/16 02:42:23;;;;;;;3.47;2.13;;;12.60;99.90;;;;;;5096228;28;20130;-60
2022/05/16 02:44:52;;;;;;;4.25;2.45;;;12.60;99.90;;;;;;5095876;28;20063;-63
2022/05/16 02:47:20;;;;;;;4.90;2.30;;;12.60;99.90;;;;;;5114167;28;20480;-60
2022/05/16 02:49:45;;;;;;;4.88;2.13;;;12.60;99.90;;;;;;5114110;28;20043;-59
2022/05/16 02:52:11;;;;;;;3.20;2.03;;;12.60;99.90;;;;;;5113296;28;20051;-60
2022/05/16 02:54:38;;;;;;;3.80;2.00;;;12.60;99.90;;;;;;5113998;28;20048;-60
2022/05/16 02:57:05;;;;;;;6.47;2.40;;;12.50;99.90;;;;;;5113447;28;20395;-61
2022/05/16 02:59:34;;;;;;;8.05;2.60;;;12.50;99.90;;;;;;5096052;28;20054;-61
2022/05/16 03:02:04;;;;;;;3.72;1.85;;;12.50;99.90;;;;;;5113409;28;20061;-60
2022/05/16 03:04:32;;;;;;;4.63;2.00;;;12.50;99.90;;;;;;5095448;28;20104;-61
2022/05/16 03:06:58;;;;;;;4.80;2.28;;;12.50;99.90;;;;;;5113380;28;20054;-61
2022/05/16 03:09:26;;;;;;;4.53;1.98;;;12.50;99.90;;;;;;5095675;28;20048;-60
2022/05/16 03:11:52;;;;;;;5.03;2.72;;;12.50;99.90;;;;;;5113569;28;20086;-63
2022/05/16 03:14:19;;;;;;;4.53;2.00;;;12.50;99.90;;;;;;5113574;28;20051;-60
2022/05/16 03:16:45;;;;;;;5.65;2.50;;;12.50;99.90;;;;;;5095558;28;20047;-60
2022/05/16 03:19:12;;;;;;;6.63;2.55;;;12.40;99.90;;;;;;5113153;28;20055;-60
2022/05/16 03:21:38;;;;;;;4.45;2.10;;;12.40;99.90;;;;;;5113332;28;20130;-59
2022/05/16 03:24:04;;;;;;;5.15;2.35;;;12.40;99.90;;;;;;5112837;28;20071;-61
2022/05/16 03:26:30;;;;;;;3.90;2.30;;;12.40;99.90;;;;;;5112744;28;20061;-59
2022/05/16 03:28:56;;;;;;;5.45;2.30;;;12.40;99.90;;;;;;5112386;28;20131;-63
2022/05/16 03:31:21;;;;;;;3.40;2.10;;;12.40;99.90;;;;;;5113277;28;20047;-60
2022/05/16 03:33:47;;;;;;;4.60;2.30;;;12.40;99.90;;;;;;5095117;28;20445;-60
2022/05/16 03:36:13;;;;;;;4.07;2.40;;;12.30;99.90;;;;;;5112611;28;20397;-60
2022/05/16 03:41:24;;;;;;;6.18;2.70;;;12.30;99.90;;;;;;5112317;28;20043;-62
2022/05/16 03:43:50;;;;;;;5.93;2.42;;;12.30;99.90;;;;;;5094367;28;20401;-59
2022/05/16 03:46:17;;;;;;;3.83;2.10;;;12.20;99.90;;;;;;5112465;28;20304;-60
2022/05/16 03:48:43;;;;;;;3.95;2.30;;;12.20;99.90;;;;;;5112868;28;20048;-61
2022/05/16 03:51:11;;;;;;;6.05;2.33;;;12.20;99.90;;;;;;5112010;28;20055;-59
2022/05/16 03:53:46;;;;;;;5.78;2.20;;;12.20;99.90;;;;;;5112984;28;20051;-59
2022/05/16 03:56:16;;;;;;;3.67;2.10;;;12.20;99.90;;;;;;5094092;28;20409;-60
2022/05/16 03:58:42;;;;;;;5.20;2.25;;;12.20;99.90;;;;;;5112423;28;20532;-60
2022/05/16 04:01:08;;;;;;;4.13;1.90;;;12.20;99.90;;;;;;5112332;28;20127;-60
2022/05/16 04:03:35;;;;;;;4.10;2.15;;;12.20;99.90;;;;;;5112672;28;20083;-60
2022/05/16 04:06:00;;;;;;;3.72;2.03;;;12.20;99.90;;;;;;5093927;28;20047;-62
2022/05/16 04:08:28;;;;;;;4.45;2.15;;;12.20;99.90;;;;;;5094455;28;20035;-61
2022/05/16 04:10:55;;;;;;;5.38;2.30;;;12.20;99.90;;;;;;5112432;28;20048;-59
2022/05/16 04:13:21;;;;;;;3.80;2.28;;;12.20;99.90;;;;;;5111762;28;20088;-61
2022/05/16 04:15:46;;;;;;;5.15;2.30;;;12.20;99.90;;;;;;5112245;28;20043;-60
2022/05/16 04:18:12;;;;;;;4.30;2.10;;;12.20;99.90;;;;;;5111945;28;20124;-60
2022/05/16 04:20:38;;;;;;;4.90;2.08;;;12.30;99.90;;;;;;5112372;28;20494;-59
2022/05/16 04:23:03;;;;;;;4.40;1.92;;;12.30;99.90;;;;;;5111941;28;20046;-61
2022/05/16 04:25:30;;;;;;;6.75;1.98;;;12.30;99.90;;;;;;5112204;28;20039;-61
2022/05/16 04:27:56;;;;;;;3.80;2.10;;;12.30;99.90;;;;;;5112204;28;20122;-59
2022/05/16 04:30:21;;;;;;;3.95;2.10;;;12.40;99.90;;;;;;5111735;28;20146;-59
2022/05/16 04:32:47;;;;;;;5.03;2.28;;;12.40;99.90;;;;;;5093483;28;20043;-60
2022/05/16 04:35:13;;;;;;;6.28;2.60;;;12.50;99.90;;;;;;5112024;28;20632;-60
2022/05/16 04:37:39;;;;;;;3.85;1.98;;;12.50;99.90;;;;;;5112026;28;20059;-60
2022/05/16 04:40:07;;;;;;;6.13;2.60;;;12.80;99.90;;;;;;5093445;28;20452;-62
2022/05/16 04:42:42;;;;;;;4.47;2.30;;;13.30;99.90;;;;;;5112002;28;20361;-60
2022/05/16 04:45:08;;;;;;;4.45;2.25;;;13.80;99.90;;;;;;5111579;28;20096;-60
2022/05/16 04:47:33;;;;;;;5.90;2.17;;;14.40;99.90;;;;;;5111926;28;20063;-60
2022/05/16 04:49:59;;;;;;;5.50;2.40;;;14.80;99.90;;;;;;5111727;28;20044;-60
2022/05/16 04:52:25;;;;;;;3.83;2.13;;;15.20;99.90;;;;;;5111110;28;20047;-60
2022/05/16 04:54:51;;;;;;;5.65;2.10;;;15.20;99.90;;;;;;5111676;28;20109;-60
2022/05/16 04:57:18;;;;;;;7.05;2.00;;;15.30;99.90;;;;;;5111179;28;20561;-61
2022/05/16 04:59:47;;;;;;;4.65;2.00;;;15.50;99.90;;;;;;5111742;28;20077;-60
2022/05/16 05:02:13;;;;;;;4.95;2.25;;;15.70;99.90;;;;;;5093526;28;20130;-59
2022/05/16 05:04:39;;;;;;;4.05;2.15;;;16.00;99.90;;;;;;5111393;28;20516;-60
2022/05/16 05:07:05;;;;;;;5.10;2.53;;;16.10;99.90;;;;;;5111678;28;20044;-60
2022/05/16 05:09:30;;;;;;;3.28;1.95;;;16.10;99.90;;;;;;5111435;28;20105;-60
2022/05/16 05:14:42;;;;;;;5.78;2.30;;;16.10;99.90;;;;;;5079248;28;20488;-60
2022/05/16 05:17:10;;;;;;;7.82;2.22;;;16.30;99.90;;;;;;5111620;28;20142;-60
2022/05/16 05:19:40;;;;;;;4.90;2.22;;;16.50;99.90;;;;;;5093332;28;20050;-60
2022/05/16 05:22:06;;;;;;;5.53;2.33;;;16.60;99.90;;;;;;5111576;28;20486;-61
2022/05/16 05:24:32;;;;;;;4.93;2.35;;;16.60;99.90;;;;;;5093088;28;20083;-60
2022/05/16 05:26:58;;;;;;;7.25;2.40;;;16.30;99.90;;;;;;5093300;28;20052;-60
2022/05/16 05:29:24;;;;;;;6.43;2.50;;;16.10;99.90;;;;;;5110829;28;20051;-60
2022/05/16 05:31:50;;;;;;;6.15;2.50;;;15.80;99.90;;;;;;5111344;28;20048;-62
2022/05/16 05:34:16;;;;;;;5.50;2.50;;;15.60;99.90;;;;;;5076246;28;20090;-59
2022/05/16 05:36:43;;;;;;;7.07;2.42;;;15.30;99.90;;;;;;5111208;28;20192;-60
2022/05/16 05:39:13;;;;;;;7.20;2.28;;;15.10;99.90;;;;;;5093282;28;20055;-61
2022/05/16 05:41:40;;;;;;;5.18;2.47;;;14.90;99.90;;;;;;5111238;28;20079;-60
2022/05/16 05:44:06;;;;;;;5.75;2.60;;;14.80;99.90;;;;;;5111167;28;20521;-61
2022/05/16 05:46:36;;;;;;;5.22;2.58;;;14.70;99.90;;;;;;5096959;28;20130;-60
2022/05/16 05:49:03;;;;;;;5.35;2.60;;;14.70;99.90;;;;;;5115417;28;20047;-59
2022/05/16 05:51:29;;;;;;;4.22;2.55;;;14.80;99.90;;;;;;5096209;28;20055;-61
2022/05/16 05:53:54;;;;;;;4.93;2.25;;;15.00;99.90;;;;;;5097011;28;20377;-60
2022/05/16 05:56:20;;;;;;;5.78;2.47;;;15.20;99.90;;;;;;5115181;28;20081;-60
2022/05/16 05:58:46;;;;;;;5.57;2.72;;;15.50;99.90;;;;;;5096829;28;20043;-60
2022/05/16 06:01:12;;;;;;;5.22;2.67;;;15.80;99.90;;;;;;5096974;28;20048;-61
2022/05/16 06:03:38;;;;;;;6.20;2.53;;;16.20;99.90;;;;;;5114573;28;20097;-61
2022/05/16 06:06:04;;;;;;;7.65;2.72;;;16.20;99.90;;;;;;5096777;28;20151;-61
2022/05/16 06:08:30;;;;;;;4.10;2.17;;;16.10;99.90;;;;;;5114480;28;20381;-59
2022/05/16 06:10:55;;;;;;;4.90;2.80;;;15.90;99.90;;;;;;5079769;28;20047;-61
2022/05/16 06:13:21;;;;;;;5.00;2.30;;;15.80;99.90;;;;;;5096019;28;20058;-62
2022/05/16 06:15:47;;;;;;;5.75;2.55;;;15.70;99.90;;;;;;5114295;28;20471;-61
2022/05/16 06:18:13;;;;;;;6.55;2.60;;;15.90;99.90;;;;;;5114769;28;20130;-60
2022/05/16 06:20:39;;;;;;;6.07;2.50;;;16.10;99.90;;;;;;5114104;28;20047;-60
2022/05/16 06:23:05;;;;;;;8.40;2.78;;;16.50;99.90;;;;;;5114204;28;20556;-60
2022/05/16 06:25:31;;;;;;;3.67;1.98;;;16.70;99.90;;;;;;5062442;28;20043;-60
2022/05/16 06:28:04;;;;;;;6.15;2.55;;;16.70;99.90;;;;;;5114551;28;20100;-60
2022/05/16 06:30:31;;;;;;;6.85;2.63;;;16.70;99.90;;;;;;5096056;28;20086;-59
2022/05/16 06:32:57;;;;;;;6.13;2.40;;;16.90;99.90;;;;;;5114326;28;20607;-59
2022/05/16 06:35:23;;;;;;;4.95;2.55;;;17.20;99.90;;;;;;5095724;28;20131;-61
2022/05/16 06:37:49;;;;;;;6.93;2.60;;;17.60;99.90;;;;;;5114181;28;20372;-60
2022/05/16 06:40:17;;;;;;;5.32;2.28;;;18.50;99.90;;;;;;5114233;28;20090;-60
2022/05/16 06:42:42;;;;;;;7.28;3.08;;;19.40;99.90;;;;;;5113913;28;20133;-60
2022/05/16 06:45:09;;;;;;;6.55;2.70;;;20.40;99.90;;;;;;5114086;28;20039;-60
2022/05/16 06:47:35;;;;;;;6.90;2.70;;;21.20;99.20;;;;;;5095632;28;20121;-61
2022/05/16 06:50:01;;;;;;;9.30;2.80;;;21.50;97.10;;;;;;5113758;28;20081;-61
2022/05/16 06:52:26;;;;;;;5.60;2.45;;;22.00;98.60;;;;;;5113422;28;20055;-60
2022/05/16 06:54:52;;;;;;;8.75;2.42;;;22.60;97.60;;;;;;5095426;28;20047;-62
2022/05/16 06:57:18;;;;;;;5.65;2.50;;;23.10;96.40;;;;;;5113323;28;20039;-62
2022/05/16 06:59:44;;;;;;;4.97;2.15;;;23.70;95.00;;;;;;5094986;28;20055;-60
2022/05/16 07:02:10;;;;;;;7.80;2.30;;;24.20;94.60;;;;;;5113478;28;20035;-60
2022/05/16 07:04:39;;;;;;;6.30;2.60;;;24.40;92.80;;;;;;5113115;28;20492;-61
2022/05/16 07:07:08;;;;;;;11.52;2.95;;;24.50;93.00;;;;;;5114011;28;20131;-61
2022/05/16 07:09:34;;;;;;;5.72;2.70;;;24.60;91.10;;;;;;5113400;28;20044;-61
2022/05/16 07:11:59;;;;;;;4.55;2.28;;;24.40;92.00;;;;;;5095664;28;20078;-61
2022/05/16 07:14:25;;;;;;;6.05;2.60;;;24.50;91.30;;;;;;5113479;28;20071;-64
2022/05/16 07:16:51;;;;;;;3.55;2.00;;;24.50;90.50;;;;;;5095533;28;20473;-60
2022/05/16 07:19:17;;;;;;;7.57;2.58;;;24.40;89.70;;;;;;5113508;28;20108;-61
2022/05/16 07:21:42;;;;;;;6.22;2.50;;;23.90;90.10;;;;;;5078231;28;20040;-61
2022/05/16 07:24:08;;;;;;;6.63;2.40;;;23.50;90.40;;;;;;5113301;28;20373;-61
2022/05/16 07:29:19;;;;;;;7.15;2.95;;;23.30;90.70;;;;;;5113609;28;20052;-61
2022/05/16 07:31:46;;;;;;;8.05;2.55;;;23.30;90.70;;;;;;5112824;28;20040;-62
2022/05/16 07:34:12;;;;;;;5.95;2.42;;;23.10;90.50;;;;;;5113455;28;20055;-59
2022/05/16 07:36:38;;;;;;;5.05;2.45;;;23.20;90.70;;;;;;5112777;28;20048;-60
2022/05/16 07:39:03;;;;;;;9.60;2.88;;;23.70;90.20;;;;;;5113246;28;20039;-60
2022/05/16 07:41:31;;;;;;;5.90;2.50;;;24.10;89.80;;;;;;5112843;28;20062;-63
2022/05/16 07:43:58;;;;;;;9.05;2.70;;;24.70;89.10;;;;;;5113327;28;20047;-60
2022/05/16 07:46:24;;;;;;;9.15;2.53;;;25.10;88.70;;;;;;5113179;28;20076;-61
2022/05/16 07:48:50;;;;;;;5.80;2.72;;;25.50;87.90;;;;;;5112646;28;20075;-60
2022/05/16 07:51:17;;;;;;;5.25;2.40;;;25.90;87.80;;;;;;5112884;28;20087;-60
2022/05/16 07:53:42;;;;;;;7.50;2.72;;;25.90;85.60;;;;;;5112614;28;20116;-60
2022/05/16 07:56:11;;;;;;;9.32;2.65;;;25.70;84.90;;;;;;5112733;28;20055;-59
2022/05/16 07:58:37;;;;;;;5.38;2.65;;;25.90;85.20;;;;;;5112244;28;20104;-60
2022/05/16 08:01:04;;;;;;;6.65;2.42;;;26.00;84.40;;;;;;5094398;28;20096;-60
2022/05/16 08:03:31;;;;;;;7.43;2.47;;;26.30;84.90;;;;;;5112593;28;20060;-61
2022/05/16 08:05:58;;;;;;;6.97;2.90;;;26.50;84.30;;;;;;5112640;28;20070;-60
2022/05/16 08:11:10;;;;;;;8.20;2.65;;;26.70;83.20;;;;;;5112526;28;20040;-61
2022/05/16 08:13:36;;;;;;;7.03;2.60;;;26.80;82.60;;;;;;5111984;28;20059;-61
2022/05/16 08:16:02;;;;;;;5.28;2.33;;;26.70;82.00;;;;;;5094089;28;20055;-61
2022/05/16 08:18:28;;;;;;;11.90;2.72;;;26.60;81.30;;;;;;5112371;28;20051;-60
2022/05/16 08:20:55;;;;;;;8.82;2.63;;;26.80;81.80;;;;;;5111613;28;20641;-59
2022/05/16 08:23:27;;;;;;;13.73;2.50;;;27.00;81.70;;;;;;5111802;28;20457;-61
2022/05/16 08:25:55;;;;;;;7.03;2.78;;;27.10;81.30;;;;;;5093736;28;20048;-60
2022/05/16 08:28:22;;;;;;;8.00;2.90;;;27.50;81.10;;;;;;5112085;28;20082;-60
2022/05/16 08:30:49;;;;;;;9.05;2.85;;;27.30;79.30;;;;;;5111413;28;20066;-60
2022/05/16 08:33:14;;;;;;;10.18;2.92;;;27.10;80.70;;;;;;5093805;28;20044;-60
2022/05/16 08:35:40;;;;;;;7.57;2.40;;;27.10;80.90;;;;;;5093295;28;20043;-61
2022/05/16 08:41:08;;;;;;;5.75;2.47;;;27.60;80.00;;;;;;5111283;28;20564;-61
2022/05/16 08:43:49;;;;;;;7.28;3.10;;;27.70;78.50;;;;;;5111924;28;20054;-60
2022/05/16 08:46:24;;;;;;;6.80;2.58;;;27.70;79.00;;;;;;5109718;28;20055;-60
2022/05/16 08:48:57;;;;;;;8.35;2.70;;;27.90;79.40;;;;;;5108487;28;20043;-61
2022/05/16 08:51:31;;;;;;;9.93;3.00;;;28.00;78.30;;;;;;5110953;28;20124;-60
2022/05/16 08:54:17;;;;;;;7.13;2.35;;;28.20;78.40;;;;;;5110903;28;20098;-61
2022/05/16 08:56:45;;;;;;;7.05;2.60;;;28.30;78.40;;;;;;5110727;28;20463;-59
2022/05/16 08:59:17;;;;;;;9.93;2.67;;;27.90;77.30;;;;;;5092731;28;20135;-61
2022/05/16 09:01:50;;;;;;;7.70;2.95;;;27.70;77.30;;;;;;5110491;28;20117;-60
2022/05/16 09:04:30;;;;;;;8.75;2.25;;;28.00;77.60;;;;;;5111257;28;20039;-61
2022/05/16 09:07:20;;;;;;;6.50;2.53;;;28.20;78.00;;;;;;5111345;28;20044;-59
2022/05/16 09:09:56;;;;;;;8.25;2.95;;;28.20;77.50;;;;;;5093117;28;20048;-60
2022/05/16 09:12:27;;;;;;;5.85;2.47;;;28.10;76.90;;;;;;5092905;28;20070;-61
2022/05/16 09:15:24;;;;;;;6.40;2.53;;;27.70;75.80;;;;;;5108792;28;20112;-60
2022/05/16 09:18:07;;;;;;;10.25;3.05;;;27.50;76.20;;;;;;5110457;28;20047;-60
2022/05/16 09:20:43;;;;;;;6.95;2.25;;;27.30;76.80;;;;;;5115864;28;20048;-60
2022/05/16 09:23:35;;;;;;;11.43;2.70;;;27.00;76.60;;;;;;5115163;28;20127;-60
2022/05/16 09:26:29;;;;;;;8.30;2.60;;;26.90;76.60;;;;;;5115280;28;20093;-59
2022/05/16 09:29:14;;;;;;;8.25;3.13;;;26.50;76.90;;;;;;5115477;28;20040;-60
2022/05/16 09:31:44;;;;;;;7.88;2.65;;;26.40;77.40;;;;;;5097125;28;20077;-60
2022/05/16 09:34:12;;;;;;;8.82;2.30;;;26.30;77.30;;;;;;5115307;28;20039;-61
2022/05/16 09:36:40;;;;;;;9.68;2.80;;;26.10;77.60;;;;;;5115467;28;20052;-60
2022/05/16 09:39:08;;;;;;;9.27;2.75;;;26.10;78.30;;;;;;5114885;28;20486;-60
2022/05/16 09:41:43;;;;;;;9.65;2.60;;;26.40;78.70;;;;;;5115063;28;20036;-59
2022/05/16 09:44:39;;;;;;;7.70;2.70;;;26.60;78.10;;;;;;5114938;28;20039;-59
2022/05/16 09:47:29;;;;;;;8.15;2.40;;;26.40;78.00;;;;;;5114718;28;20044;-59
2022/05/16 09:50:07;;;;;;;9.88;2.97;;;26.30;77.80;;;;;;5114469;28;20043;-62
2022/05/16 09:52:51;;;;;;;5.60;2.28;;;26.20;77.60;;;;;;5114945;28;20142;-59
2022/05/16 09:55:30;;;;;;;8.45;2.83;;;26.10;78.30;;;;;;5096750;28;20056;-60
2022/05/16 09:57:59;;;;;;;11.35;2.80;;;26.20;79.60;;;;;;5113477;28;20047;-59
2022/05/16 10:00:32;;;;;;;11.85;2.72;;;26.20;78.20;;;;;;5114601;28;20036;-60
2022/05/16 10:03:32;;;;;;;11.35;2.85;;;26.40;78.20;;;;;;5113994;28;20040;-59
2022/05/16 10:06:01;;;;;;;7.93;2.60;;;26.50;77.60;;;;;;5114606;28;20438;-62
2022/05/16 10:08:42;;;;;;;8.60;3.15;;;26.40;77.80;;;;;;5114490;28;20044;-61
2022/05/16 10:11:15;;;;;;;9.57;2.40;;;26.50;77.30;;;;;;5114232;28;20094;-59
2022/05/16 10:13:41;;;;;;;11.35;3.33;;;26.70;77.10;;;;;;5114637;28;20055;-60
2022/05/16 10:16:09;;;;;;;10.48;2.90;;;27.00;77.80;;;;;;5114563;28;20668;-59
2022/05/16 10:19:16;;;;;;;7.05;2.40;;;27.10;75.90;;;;;;5114831;28;20043;-59
2022/05/16 10:21:52;;;;;;;9.35;2.97;;;27.10;75.80;;;;;;5114603;28;20111;-59
2022/05/16 10:24:19;;;;;;;10.27;2.92;;;27.10;75.10;;;;;;5113903;28;20492;-59
2022/05/16 10:26:48;;;;;;;6.65;2.10;;;27.10;75.20;;;;;;5114279;28;20089;-59
2022/05/16 10:29:26;;;;;;;5.35;2.40;;;27.10;75.30;;;;;;5113840;28;20051;-61
2022/05/16 10:34:50;;;;;;;7.28;2.45;;;27.00;75.50;;;;;;5113656;28;20051;-59
2022/05/16 10:37:16;;;;;;;;;;;26.90;75.80;;;;;;5114775;28;20043;-61
2022/05/16 10:39:45;;;;;;;9.82;2.65;;;26.70;75.40;;;;;;5114372;28;19920;-60
2022/05/16 10:42:26;;;;;;;6.90;2.72;;;26.60;75.10;;;;;;5095100;28;20051;-59
2022/05/16 10:45:06;;;;;;;7.50;2.25;;;26.50;75.30;;;;;;5113760;28;20051;-62
2022/05/16 10:47:46;;;;;;;7.28;2.58;;;26.60;76.10;;;;;;5096229;28;20502;-60
2022/05/16 10:50:21;;;;;;;8.13;2.72;;;26.80;75.60;;;;;;5113696;28;20243;-60
2022/05/16 10:53:02;;;;;;;9.05;2.72;;;26.90;76.20;;;;;;5113780;28;20139;-60
2022/05/16 10:55:46;;;;;;;6.53;2.70;;;27.20;76.00;;;;;;5095579;28;20055;-60
2022/05/16 10:58:29;;;;;;;9.55;2.88;;;27.30;75.70;;;;;;5112607;28;20043;-61
2022/05/16 11:01:19;;;;;;;8.37;2.40;;;27.40;74.70;;;;;;5111361;28;20126;-60
2022/05/16 11:04:13;;;;;;;5.05;2.50;;;27.40;75.20;;;;;;5113762;28;20112;-61
2022/05/16 11:07:06;;;;;;;11.30;2.90;;;27.40;75.00;;;;;;5113792;28;20070;-61
2022/05/16 11:10:08;;;;;;;7.30;2.75;;;27.40;74.80;;;;;;5113599;28;20511;-60
2022/05/16 11:12:41;;;;;;;10.00;2.45;;;27.30;73.80;;;;;;5080831;28;20054;-60
2022/05/16 11:15:25;;;;;;;11.27;2.53;;;27.20;74.00;;;;;;5112402;28;20044;-60
2022/05/16 11:18:08;;;;;;;10.10;3.60;;;27.10;73.90;;;;;;5113727;28;20105;-61
2022/05/16 11:20:44;;;;;;;9.77;2.90;;;26.90;73.20;;;;;;5113602;28;20051;-62
2022/05/16 11:23:31;;;;;;;8.68;2.75;;;26.90;73.70;;;;;;5113215;28;20048;-61
2022/05/16 11:26:11;;;;;;;14.07;3.25;;;27.00;73.90;;;;;;5094267;28;20059;-62
2022/05/16 11:29:18;;;;;;;7.50;2.63;;;27.00;73.80;;;;;;5113439;28;20086;-61
2022/05/16 11:31:58;;;;;;;7.05;2.40;;;27.00;73.60;;;;;;5112898;28;20039;-61
2022/05/16 11:34:50;;;;;;;9.82;2.85;;;26.90;73.90;;;;;;5113008;28;20044;-59
2022/05/16 11:37:32;;;;;;;6.50;2.15;;;26.90;74.20;;;;;;5065473;28;20051;-59
2022/05/16 11:40:12;;;;;;;8.27;2.53;;;26.90;73.70;;;;;;5112502;28;20039;-63
2022/05/16 11:43:14;;;;;;;7.18;2.80;;;26.80;73.70;;;;;;5112975;28;20097;-60
2022/05/16 11:46:02;;;;;;;11.25;2.97;;;26.70;74.50;;;;;;5113117;28;20486;-59
2022/05/16 11:48:59;;;;;;;6.13;2.25;;;26.70;74.30;;;;;;5113172;28;20044;-59
2022/05/16 11:51:50;;;;;;;7.90;2.70;;;26.70;74.40;;;;;;5112153;28;20055;-60
2022/05/16 11:54:24;;;;;;;10.63;2.67;;;26.70;74.80;;;;;;5107321;28;20055;-60
2022/05/16 12:02:41;;;;;;;6.40;2.60;;;26.70;74.80;;;;;;5094495;28;20142;-61
2022/05/16 12:05:18;;;;;;;7.95;2.80;;;26.70;74.40;;;;;;5112319;28;20125;-61
2022/05/16 12:07:57;;;;;;;7.95;2.20;;;26.60;74.70;;;;;;5112600;28;20044;-61
2022/05/16 12:10:28;;;;;;;4.88;2.35;;;26.60;74.90;;;;;;5111964;28;20039;-59
2022/05/16 12:13:18;;;;;;;10.98;3.05;;;26.60;75.20;;;;;;5112294;28;20049;-61
2022/05/16 12:15:44;;;;;;;6.93;2.55;;;26.50;76.10;;;;;;5112227;28;20149;-59
2022/05/16 12:18:38;;;;;;;11.40;3.10;;;26.60;76.00;;;;;;5111529;28;20075;-59
2022/05/16 12:21:18;;;;;;;5.88;2.35;;;26.60;76.40;;;;;;5093834;28;20056;-65
2022/05/16 12:23:43;;;;;;;7.07;2.70;;;26.60;76.10;;;;;;5112177;28;20050;-60
2022/05/16 12:26:11;;;;;;;8.85;2.80;;;26.60;76.40;;;;;;5112110;28;20130;-60
2022/05/16 12:28:37;;;;;;;7.85;2.88;;;26.60;76.10;;;;;;5112244;28;20412;-61
2022/05/16 12:31:06;;;;;;;9.00;2.58;;;26.70;77.50;;;;;;5111992;28;20036;-62
2022/05/16 12:33:41;;;;;;;5.70;2.70;;;26.60;78.30;;;;;;5112223;28;20158;-63
2022/05/16 12:36:21;;;;;;;7.60;2.75;;;26.80;79.10;;;;;;5093807;28;20043;-65
2022/05/16 12:38:52;;;;;;;11.15;3.20;;;26.80;80.00;;;;;;5112248;28;20044;-62
2022/05/16 12:41:51;;;;;;;10.13;3.20;;;26.90;79.50;;;;;;5093732;28;20043;-60
2022/05/16 12:44:42;;;;;;;11.68;3.40;;;26.90;78.90;;;;;;5093393;28;20062;-62
2022/05/16 12:47:40;;;;;;;8.15;2.70;;;26.90;78.00;;;;;;5111407;28;20092;-64
2022/05/16 12:50:34;;;;;;;11.00;3.10;;;26.80;78.50;;;;;;5111517;28;20497;-60
2022/05/16 12:53:20;;;;;;;8.02;3.15;;;26.70;78.60;;;;;;5098952;28;20058;-60
2022/05/16 12:55:46;;;;;;;6.88;2.70;;;26.70;79.60;;;;;;5111978;28;20047;-61
2022/05/16 12:58:25;;;;;;;8.68;3.22;;;26.70;79.30;;;;;;5093116;28;20476;-61
2022/05/16 13:00:52;;;;;;;11.05;3.10;;;26.60;80.30;;;;;;5111794;28;20079;-61
2022/05/16 13:03:47;;;;;;;6.15;3.00;;;26.40;81.20;;;;;;5092726;28;20130;-62
2022/05/16 13:06:31;;;;;;;9.60;3.30;;;26.20;81.80;;;;;;5111167;28;20050;-62
2022/05/16 13:09:14;;;;;;;11.32;3.42;;;26.20;81.70;;;;;;5111793;28;20134;-60
2022/05/16 13:11:47;;;;;;;9.00;3.08;;;26.10;81.60;;;;;;5111151;28;20083;-59
2022/05/16 13:14:50;;;;;;;9.20;3.38;;;26.20;81.40;;;;;;5076418;28;20084;-60
2022/05/16 13:17:40;;;;;;;8.80;3.20;;;26.20;81.30;;;;;;5088466;28;20157;-60
2022/05/16 13:20:11;;;;;;;10.50;3.25;;;26.10;82.70;;;;;;5093135;28;20067;-60
2022/05/16 13:22:41;;;;;;;9.00;3.20;;;26.10;82.80;;;;;;5111348;28;20051;-60
2022/05/16 13:25:08;;;;;;;7.68;3.17;;;26.20;82.10;;;;;;5111660;28;20086;-60
2022/05/16 13:30:21;;;;;;;12.63;3.33;;;26.30;81.60;;;;;;5111063;28;20391;-61
2022/05/16 13:32:48;;;;;;;9.05;3.60;;;26.30;81.40;;;;;;5111207;28;20143;-62
2022/05/16 13:35:37;;;;;;;12.07;3.63;;;26.30;81.30;;;;;;5110888;28;20075;-63
2022/05/16 13:38:08;;;;;;;13.35;3.70;;;26.30;82.00;;;;;;5111161;28;20079;-61